sensor_id;sensor_type;location;lat;lon;timestamp;pressure;altitude;pressure_sealevel;temperature;humidity
35443;BME280;21561;55.654;37.592;2023-03-26T00:01:20;97958.66;;;6.52;100.00
35443;BME280;21561;55.654;37.592;2023-03-26T00:03:49;97963.78;;;6.54;100.00
35443;BME280;21561;55.654;37.592;2023-03-26T00:06:27;97959.47;;;6.54;100.00
35443;BME280;21561;55.654;37.592;2023-03-26T00:08:55;97958.53;;;6.57;100.00
35443;BME280;21561;55.654;37.592;2023-03-26T00:11:23;97961.09;;;6.58;100.00
35443;BME280;21561;55.654;37.592;2023-03-26T00:13:50;97949.03;;;6.60;100.00
35443;BME280;21561;55.654;37.592;2023-03-26T00:16:19;97953.38;;;6.58;100.00
35443;BME280;21561;55.654;37.592;2023-03-26T00:18:46;97949.16;;;6.54;100.00
35443;BME280;21561;55.654;37.592;2023-03-26T00:21:15;97946.69;;;6.48;100.00
35443;BME280;21561;55.654;37.592;2023-03-26T00:23:42;97949.38;;;6.42;100.00
35443;BME280;21561;55.654;37.592;2023-03-26T00:26:09;97958.00;;;6.39;100.00
35443;BME280;21561;55.654;37.592;2023-03-26T00:28:37;97975.25;;;6.36;100.00
35443;BME280;21561;55.654;37.592;2023-03-26T00:31:07;97959.00;;;6.32;100.00
35443;BME280;21561;55.654;37.592;2023-03-26T00:33:34;97959.91;;;6.28;100.00
35443;BME280;21561;55.654;37.592;2023-03-26T00:36:04;97960.00;;;6.23;100.00
35443;BME280;21561;55.654;37.592;2023-03-26T00:38:31;97959.19;;;6.20;100.00
35443;BME280;21561;55.654;37.592;2023-03-26T00:41:05;97957.56;;;6.16;100.00
35443;BME280;21561;55.654;37.592;2023-03-26T00:43:34;97951.59;;;6.12;100.00
35443;BME280;21561;55.654;37.592;2023-03-26T00:46:01;97947.31;;;6.13;100.00
35443;BME280;21561;55.654;37.592;2023-03-26T00:48:28;97942.16;;;6.11;100.00
35443;BME280;21561;55.654;37.592;2023-03-26T00:51:10;97931.88;;;6.09;100.00
35443;BME280;21561;55.654;37.592;2023-03-26T00:53:37;97929.34;;;6.08;100.00
35443;BME280;21561;55.654;37.592;2023-03-26T00:56:06;97924.25;;;6.05;100.00
35443;BME280;21561;55.654;37.592;2023-03-26T00:58:33;97931.13;;;6.03;100.00
35443;BME280;21561;55.654;37.592;2023-03-26T01:01:01;97920.84;;;6.03;100.00
35443;BME280;21561;55.654;37.592;2023-03-26T01:03:32;97920.84;;;6.03;100.00
35443;BME280;21561;55.654;37.592;2023-03-26T01:08:40;97915.63;;;6.06;100.00
35443;BME280;21561;55.654;37.592;2023-03-26T01:11:09;97922.50;;;6.07;100.00
35443;BME280;21561;55.654;37.592;2023-03-26T01:13:43;97915.63;;;6.06;100.00
35443;BME280;21561;55.654;37.592;2023-03-26T01:16:17;97919.97;;;6.04;100.00
35443;BME280;21561;55.654;37.592;2023-03-26T01:18:46;97919.16;;;6.02;100.00
35443;BME280;21561;55.654;37.592;2023-03-26T01:21:16;97926.06;;;6.00;100.00
35443;BME280;21561;55.654;37.592;2023-03-26T01:24:00;97928.66;;;5.98;100.00
35443;BME280;21561;55.654;37.592;2023-03-26T01:29:04;97924.34;;;5.99;100.00
35443;BME280;21561;55.654;37.592;2023-03-26T01:31:43;97923.47;;;6.00;100.00
35443;BME280;21561;55.654;37.592;2023-03-26T01:34:17;97917.41;;;6.04;100.00
35443;BME280;21561;55.654;37.592;2023-03-26T01:41:47;97910.41;;;6.12;100.00
35443;BME280;21561;55.654;37.592;2023-03-26T01:46:54;97905.91;;;6.23;100.00
35443;BME280;21561;55.654;37.592;2023-03-26T01:49:21;97907.66;;;6.23;100.00
35443;BME280;21561;55.654;37.592;2023-03-26T01:51:49;97911.09;;;6.22;100.00
35443;BME280;21561;55.654;37.592;2023-03-26T01:54:17;97905.97;;;6.19;100.00
35443;BME280;21561;55.654;37.592;2023-03-26T02:02:11;97899.03;;;6.24;100.00
35443;BME280;21561;55.654;37.592;2023-03-26T02:07:15;97887.09;;;6.20;100.00
35443;BME280;21561;55.654;37.592;2023-03-26T02:09:47;97886.25;;;6.19;100.00
35443;BME280;21561;55.654;37.592;2023-03-26T02:12:16;97886.25;;;6.19;100.00
35443;BME280;21561;55.654;37.592;2023-03-26T02:14:43;97884.53;;;6.18;100.00
35443;BME280;21561;55.654;37.592;2023-03-26T02:17:29;97876.00;;;6.16;100.00
35443;BME280;21561;55.654;37.592;2023-03-26T02:19:57;97875.19;;;6.13;100.00
35443;BME280;21561;55.654;37.592;2023-03-26T02:22:24;97877.84;;;6.08;100.00
35443;BME280;21561;55.654;37.592;2023-03-26T02:24:55;97877.00;;;6.07;100.00
35443;BME280;21561;55.654;37.592;2023-03-26T02:27:21;97882.97;;;6.08;100.00
35443;BME280;21561;55.654;37.592;2023-03-26T02:29:48;97883.84;;;6.08;100.00
35443;BME280;21561;55.654;37.592;2023-03-26T02:32:15;97871.88;;;6.06;100.00
35443;BME280;21561;55.654;37.592;2023-03-26T02:34:44;97871.91;;;6.03;100.00
35443;BME280;21561;55.654;37.592;2023-03-26T02:37:12;97874.56;;;6.00;100.00
35443;BME280;21561;55.654;37.592;2023-03-26T02:39:39;97877.13;;;6.00;100.00
35443;BME280;21561;55.654;37.592;2023-03-26T02:42:06;97879.72;;;5.98;100.00
35443;BME280;21561;55.654;37.592;2023-03-26T02:44:32;97877.19;;;5.93;100.00
35443;BME280;21561;55.654;37.592;2023-03-26T02:46:59;97877.25;;;5.90;100.00
35443;BME280;21561;55.654;37.592;2023-03-26T02:49:26;97875.56;;;5.88;100.00
35443;BME280;21561;55.654;37.592;2023-03-26T02:51:53;97869.63;;;5.84;100.00
35443;BME280;21561;55.654;37.592;2023-03-26T02:54:21;97870.53;;;5.82;100.00
35443;BME280;21561;55.654;37.592;2023-03-26T02:56:48;97867.16;;;5.80;100.00
35443;BME280;21561;55.654;37.592;2023-03-26T02:59:15;97867.94;;;5.83;100.00
35443;BME280;21561;55.654;37.592;2023-03-26T03:01:42;97870.47;;;5.85;100.00
35443;BME280;21561;55.654;37.592;2023-03-26T03:04:09;97867.88;;;5.86;100.00
35443;BME280;21561;55.654;37.592;2023-03-26T03:06:36;97861.03;;;5.87;100.00
35443;BME280;21561;55.654;37.592;2023-03-26T03:09:04;97855.81;;;5.88;100.00
35443;BME280;21561;55.654;37.592;2023-03-26T03:11:31;97855.81;;;5.88;100.00
35443;BME280;21561;55.654;37.592;2023-03-26T03:13:57;97851.53;;;5.90;100.00
35443;BME280;21561;55.654;37.592;2023-03-26T03:16:24;97855.75;;;5.93;100.00
35443;BME280;21561;55.654;37.592;2023-03-26T03:18:51;97851.44;;;5.95;100.00
35443;BME280;21561;55.654;37.592;2023-03-26T03:21:24;97852.25;;;5.99;100.00
35443;BME280;21561;55.654;37.592;2023-03-26T03:23:53;97850.44;;;6.04;100.00
35443;BME280;21561;55.654;37.592;2023-03-26T03:26:20;97850.41;;;6.07;100.00
35443;BME280;21561;55.654;37.592;2023-03-26T03:28:47;97846.91;;;6.09;100.00
35443;BME280;21561;55.654;37.592;2023-03-26T03:31:15;97846.06;;;6.09;100.00
35443;BME280;21561;55.654;37.592;2023-03-26T03:33:42;97835.75;;;6.10;100.00
35443;BME280;21561;55.654;37.592;2023-03-26T03:36:09;97830.59;;;6.10;100.00
35443;BME280;21561;55.654;37.592;2023-03-26T03:38:47;97831.47;;;6.09;100.00
35443;BME280;21561;55.654;37.592;2023-03-26T03:41:14;97826.28;;;6.11;100.00
35443;BME280;21561;55.654;37.592;2023-03-26T03:43:40;97819.38;;;6.13;100.00
35443;BME280;21561;55.654;37.592;2023-03-26T03:46:07;97821.00;;;6.17;100.00
35443;BME280;21561;55.654;37.592;2023-03-26T03:48:33;97817.50;;;6.23;100.00
35443;BME280;21561;55.654;37.592;2023-03-26T03:51:03;97814.81;;;6.27;100.00
35443;BME280;21561;55.654;37.592;2023-03-26T03:53:31;97813.06;;;6.29;100.00
35443;BME280;21561;55.654;37.592;2023-03-26T03:56:02;97814.72;;;6.34;100.00
35443;BME280;21561;55.654;37.592;2023-03-26T03:58:30;97815.44;;;6.39;100.00
35443;BME280;21561;55.654;37.592;2023-03-26T04:00:56;97820.50;;;6.45;100.00
35443;BME280;21561;55.654;37.592;2023-03-26T04:03:26;97816.91;;;6.52;100.00
35443;BME280;21561;55.654;37.592;2023-03-26T04:05:59;97815.03;;;6.60;100.00
35443;BME280;21561;55.654;37.592;2023-03-26T04:08:26;97812.28;;;6.69;100.00
35443;BME280;21561;55.654;37.592;2023-03-26T04:10:52;97806.13;;;6.77;100.00
35443;BME280;21561;55.654;37.592;2023-03-26T04:13:19;97799.03;;;6.85;100.00
35443;BME280;21561;55.654;37.592;2023-03-26T04:15:46;97800.66;;;6.89;100.00
35443;BME280;21561;55.654;37.592;2023-03-26T04:18:13;97798.84;;;6.94;100.00
35443;BME280;21561;55.654;37.592;2023-03-26T04:20:40;97791.91;;;6.96;100.00
35443;BME280;21561;55.654;37.592;2023-03-26T04:23:12;97791.78;;;7.02;100.00
35443;BME280;21561;55.654;37.592;2023-03-26T04:25:42;97793.41;;;7.06;100.00
35443;BME280;21561;55.654;37.592;2023-03-26T04:28:27;97784.75;;;7.11;100.00
35443;BME280;21561;55.654;37.592;2023-03-26T04:30:56;97787.16;;;7.17;100.00
35443;BME280;21561;55.654;37.592;2023-03-26T04:33:30;97779.38;;;7.20;100.00
35443;BME280;21561;55.654;37.592;2023-03-26T04:35:58;97779.28;;;7.23;100.00
35443;BME280;21561;55.654;37.592;2023-03-26T04:38:28;97780.91;;;7.27;100.00
35443;BME280;21561;55.654;37.592;2023-03-26T04:40:55;97770.50;;;7.30;100.00
35443;BME280;21561;55.654;37.592;2023-03-26T04:43:26;97776.44;;;7.34;100.00
35443;BME280;21561;55.654;37.592;2023-03-26T04:45:53;97774.63;;;7.37;100.00
35443;BME280;21561;55.654;37.592;2023-03-26T04:48:20;97770.31;;;7.39;100.00
35443;BME280;21561;55.654;37.592;2023-03-26T04:50:47;97765.03;;;7.42;100.00
35443;BME280;21561;55.654;37.592;2023-03-26T04:53:17;97756.31;;;7.48;100.00
35443;BME280;21561;55.654;37.592;2023-03-26T04:58:21;97757.75;;;7.60;100.00
35443;BME280;21561;55.654;37.592;2023-03-26T05:01:01;97756.81;;;7.62;100.00
35443;BME280;21561;55.654;37.592;2023-03-26T05:03:36;97755.13;;;7.61;100.00
35443;BME280;21561;55.654;37.592;2023-03-26T05:06:08;97757.69;;;7.63;100.00
35443;BME280;21561;55.654;37.592;2023-03-26T05:08:36;97752.50;;;7.63;100.00
35443;BME280;21561;55.654;37.592;2023-03-26T05:11:02;97749.94;;;7.63;100.00
35443;BME280;21561;55.654;37.592;2023-03-26T05:13:32;97754.13;;;7.67;100.00
35443;BME280;21561;55.654;37.592;2023-03-26T05:15:59;97748.88;;;7.70;100.00
35443;BME280;21561;55.654;37.592;2023-03-26T05:18:26;97751.47;;;7.70;100.00
35443;BME280;21561;55.654;37.592;2023-03-26T05:20:52;97743.69;;;7.72;100.00
35443;BME280;21561;55.654;37.592;2023-03-26T05:23:19;97756.59;;;7.72;100.00
35443;BME280;21561;55.654;37.592;2023-03-26T05:25:46;97747.25;;;7.66;100.00
35443;BME280;21561;55.654;37.592;2023-03-26T05:28:12;97747.41;;;7.60;100.00
35443;BME280;21561;55.654;37.592;2023-03-26T05:30:40;97745.88;;;7.53;100.00
35443;BME280;21561;55.654;37.592;2023-03-26T05:33:08;97742.56;;;7.48;100.00
35443;BME280;21561;55.654;37.592;2023-03-26T05:35:35;97747.78;;;7.44;100.00
35443;BME280;21561;55.654;37.592;2023-03-26T05:38:02;97745.34;;;7.40;100.00
35443;BME280;21561;55.654;37.592;2023-03-26T05:40:29;97745.47;;;7.34;100.00
35443;BME280;21561;55.654;37.592;2023-03-26T05:42:55;97749.88;;;7.30;100.00
35443;BME280;21561;55.654;37.592;2023-03-26T05:45:22;97739.63;;;7.27;100.00
35443;BME280;21561;55.654;37.592;2023-03-26T05:47:49;97741.41;;;7.25;100.00
35443;BME280;21561;55.654;37.592;2023-03-26T05:50:16;97736.31;;;7.22;100.00
35443;BME280;21561;55.654;37.592;2023-03-26T05:52:43;97739.78;;;7.21;100.00
35443;BME280;21561;55.654;37.592;2023-03-26T05:55:10;97741.56;;;7.17;100.00
35443;BME280;21561;55.654;37.592;2023-03-26T05:57:37;97739.94;;;7.15;100.00
35443;BME280;21561;55.654;37.592;2023-03-26T06:00:04;97733.06;;;7.14;100.00
35443;BME280;21561;55.654;37.592;2023-03-26T06:02:34;97726.28;;;7.10;100.00
35443;BME280;21561;55.654;37.592;2023-03-26T06:05:01;97717.69;;;7.11;100.00
35443;BME280;21561;55.654;37.592;2023-03-26T06:07:28;97714.19;;;7.12;100.00
35443;BME280;21561;55.654;37.592;2023-03-26T06:09:56;97712.53;;;7.11;100.00
35443;BME280;21561;55.654;37.592;2023-03-26T06:12:22;97710.00;;;7.07;100.00
35443;BME280;21561;55.654;37.592;2023-03-26T06:14:49;97704.91;;;7.04;100.00
35443;BME280;21561;55.654;37.592;2023-03-26T06:17:16;97703.28;;;7.02;100.00
35443;BME280;21561;55.654;37.592;2023-03-26T06:19:43;97704.13;;;7.02;100.00
35443;BME280;21561;55.654;37.592;2023-03-26T06:22:09;97695.56;;;7.00;100.00
35443;BME280;21561;55.654;37.592;2023-03-26T06:24:36;97687.91;;;6.97;100.00
35443;BME280;21561;55.654;37.592;2023-03-26T06:27:03;97692.25;;;6.95;100.00
35443;BME280;21561;55.654;37.592;2023-03-26T06:29:30;97693.16;;;6.93;100.00
35443;BME280;21561;55.654;37.592;2023-03-26T06:31:56;97688.00;;;6.93;100.00
35443;BME280;21561;55.654;37.592;2023-03-26T06:34:37;97689.66;;;6.95;100.00
35443;BME280;21561;55.654;37.592;2023-03-26T06:37:04;97680.16;;;6.97;100.00
35443;BME280;21561;55.654;37.592;2023-03-26T06:39:31;97681.88;;;6.98;100.00
35443;BME280;21561;55.654;37.592;2023-03-26T06:41:57;97677.50;;;7.02;100.00
35443;BME280;21561;55.654;37.592;2023-03-26T06:44:24;97671.41;;;7.04;100.00
35443;BME280;21561;55.654;37.592;2023-03-26T06:46:51;97669.56;;;7.10;100.00
35443;BME280;21561;55.654;37.592;2023-03-26T06:49:18;97669.50;;;7.13;100.00
35443;BME280;21561;55.654;37.592;2023-03-26T06:51:44;97665.16;;;7.13;100.00
35443;BME280;21561;55.654;37.592;2023-03-26T06:54:12;97668.50;;;7.17;100.00
35443;BME280;21561;55.654;37.592;2023-03-26T06:56:38;97660.78;;;7.17;100.00
35443;BME280;21561;55.654;37.592;2023-03-26T06:59:05;97667.66;;;7.18;100.00
35443;BME280;21561;55.654;37.592;2023-03-26T07:01:31;97659.81;;;7.21;100.00
35443;BME280;21561;55.654;37.592;2023-03-26T07:03:58;97655.44;;;7.23;100.00
35443;BME280;21561;55.654;37.592;2023-03-26T07:06:25;97657.16;;;7.24;100.00
35443;BME280;21561;55.654;37.592;2023-03-26T07:08:52;97658.00;;;7.24;100.00
35443;BME280;21561;55.654;37.592;2023-03-26T07:11:20;97647.69;;;7.24;100.00
35443;BME280;21561;55.654;37.592;2023-03-26T07:13:50;97638.22;;;7.25;100.00
35443;BME280;21561;55.654;37.592;2023-03-26T07:16:17;97627.03;;;7.24;100.00
35443;BME280;21561;55.654;37.592;2023-03-26T07:18:44;97623.56;;;7.27;100.00
35443;BME280;21561;55.654;37.592;2023-03-26T07:21:10;97623.44;;;7.30;100.00
35443;BME280;21561;55.654;37.592;2023-03-26T07:23:37;97614.03;;;7.29;100.00
35443;BME280;21561;55.654;37.592;2023-03-26T07:26:10;97616.66;;;7.28;100.00
35443;BME280;21561;55.654;37.592;2023-03-26T07:28:41;97619.25;;;7.26;100.00
35443;BME280;21561;55.654;37.592;2023-03-26T07:37:21;97618.22;;;7.33;100.00
35443;BME280;21561;55.654;37.592;2023-03-26T07:39:55;97619.75;;;7.40;100.00
35443;BME280;21561;55.654;37.592;2023-03-26T07:44:51;97614.84;;;7.31;100.00
35443;BME280;21561;55.654;37.592;2023-03-26T07:49:52;97600.41;;;7.24;100.00
35443;BME280;21561;55.654;37.592;2023-03-26T07:52:19;97595.31;;;7.21;100.00
35443;BME280;21561;55.654;37.592;2023-03-26T07:54:46;97595.31;;;7.21;100.00
35443;BME280;21561;55.654;37.592;2023-03-26T07:59:50;97597.81;;;7.24;100.00
35443;BME280;21561;55.654;37.592;2023-03-26T08:02:22;97606.44;;;7.23;100.00
35443;BME280;21561;55.654;37.592;2023-03-26T08:05:12;97604.78;;;7.20;100.00
35443;BME280;21561;55.654;37.592;2023-03-26T08:07:52;97609.22;;;7.15;100.00
35443;BME280;21561;55.654;37.592;2023-03-26T08:10:22;97602.56;;;7.06;100.00
35443;BME280;21561;55.654;37.592;2023-03-26T08:12:54;97594.09;;;7.01;100.00
35443;BME280;21561;55.654;37.592;2023-03-26T08:18:31;97574.44;;;6.97;100.00
35443;BME280;21561;55.654;37.592;2023-03-26T08:21:09;97580.47;;;6.96;100.00
35443;BME280;21561;55.654;37.592;2023-03-26T08:29:14;97568.72;;;6.86;100.00
35443;BME280;21561;55.654;37.592;2023-03-26T08:31:43;97575.56;;;6.87;100.00
35443;BME280;21561;55.654;37.592;2023-03-26T08:34:11;97569.59;;;6.85;100.00
35443;BME280;21561;55.654;37.592;2023-03-26T08:36:38;97572.25;;;6.82;100.00
35443;BME280;21561;55.654;37.592;2023-03-26T08:39:05;97547.41;;;6.79;100.00
35443;BME280;21561;55.654;37.592;2023-03-26T08:41:58;97565.47;;;6.78;100.00
35443;BME280;21561;55.654;37.592;2023-03-26T08:57:49;97540.09;;;6.62;100.00
35443;BME280;21561;55.654;37.592;2023-03-26T09:03:07;97539.22;;;6.63;100.00
35443;BME280;21561;55.654;37.592;2023-03-26T09:13:57;97544.50;;;6.59;100.00
35443;BME280;21561;55.654;37.592;2023-03-26T09:19:25;97538.69;;;6.49;100.00
35443;BME280;21561;55.654;37.592;2023-03-26T09:24:58;97535.25;;;6.50;100.00
35443;BME280;21561;55.654;37.592;2023-03-26T09:27:37;97531.78;;;6.51;100.00
35443;BME280;21561;55.654;37.592;2023-03-26T09:32:52;97527.56;;;6.48;100.00
35443;BME280;21561;55.654;37.592;2023-03-26T09:40:30;97506.25;;;6.42;100.00
35443;BME280;21561;55.654;37.592;2023-03-26T09:45:51;97497.47;;;6.49;100.00
35443;BME280;21561;55.654;37.592;2023-03-26T09:54:17;97493.16;;;6.49;100.00
35443;BME280;21561;55.654;37.592;2023-03-26T09:59:34;97490.78;;;6.42;100.00
35443;BME280;21561;55.654;37.592;2023-03-26T10:08:05;97496.00;;;6.39;100.00
35443;BME280;21561;55.654;37.592;2023-03-26T10:21:45;97482.25;;;6.40;100.00
35443;BME280;21561;55.654;37.592;2023-03-26T10:26:51;97475.09;;;6.51;100.00
35443;BME280;21561;55.654;37.592;2023-03-26T10:34:55;97479.38;;;6.52;100.00
35443;BME280;21561;55.654;37.592;2023-03-26T10:37:35;97468.13;;;6.55;100.00
35443;BME280;21561;55.654;37.592;2023-03-26T10:40:15;97467.22;;;6.57;100.00
35443;BME280;21561;55.654;37.592;2023-03-26T10:42:59;97471.47;;;6.58;100.00
35443;BME280;21561;55.654;37.592;2023-03-26T10:45:52;97470.63;;;6.58;100.00
35443;BME280;21561;55.654;37.592;2023-03-26T10:51:24;97467.03;;;6.63;100.00
35443;BME280;21561;55.654;37.592;2023-03-26T10:53:43;97460.22;;;6.62;100.00
35443;BME280;21561;55.654;37.592;2023-03-26T10:56:32;97457.53;;;6.65;100.00
35443;BME280;21561;55.654;37.592;2023-03-26T10:59:05;97460.13;;;6.65;100.00
35443;BME280;21561;55.654;37.592;2023-03-26T11:06:54;97456.44;;;6.74;100.00
35443;BME280;21561;55.654;37.592;2023-03-26T11:12:16;97444.38;;;6.76;100.00
35443;BME280;21561;55.654;37.592;2023-03-26T11:23:36;97449.47;;;6.78;100.00
35443;BME280;21561;55.654;37.592;2023-03-26T11:34:05;97445.84;;;6.85;100.00
35443;BME280;21561;55.654;37.592;2023-03-26T11:36:36;97452.59;;;6.89;100.00
35443;BME280;21561;55.654;37.592;2023-03-26T11:39:09;97453.44;;;6.91;100.00
35443;BME280;21561;55.654;37.592;2023-03-26T11:41:38;97447.44;;;6.89;100.00
35443;BME280;21561;55.654;37.592;2023-03-26T11:44:12;97447.38;;;6.92;100.00
35443;BME280;21561;55.654;37.592;2023-03-26T11:46:41;97459.47;;;6.90;100.00
35443;BME280;21561;55.654;37.592;2023-03-26T11:49:10;97450.97;;;6.86;100.00
35443;BME280;21561;55.654;37.592;2023-03-26T11:51:38;97450.13;;;6.86;100.00
35443;BME280;21561;55.654;37.592;2023-03-26T11:54:06;97457.84;;;6.87;100.00
35443;BME280;21561;55.654;37.592;2023-03-26T12:04:10;97445.00;;;6.84;100.00
35443;BME280;21561;55.654;37.592;2023-03-26T12:06:39;97449.25;;;6.85;100.00
35443;BME280;21561;55.654;37.592;2023-03-26T12:09:16;97443.25;;;6.86;100.00
35443;BME280;21561;55.654;37.592;2023-03-26T12:11:42;97446.75;;;6.84;100.00
35443;BME280;21561;55.654;37.592;2023-03-26T12:14:15;97441.50;;;6.87;100.00
35443;BME280;21561;55.654;37.592;2023-03-26T12:19:42;97439.97;;;6.80;100.00
35443;BME280;21561;55.654;37.592;2023-03-26T12:22:26;97430.53;;;6.80;100.00
35443;BME280;21561;55.654;37.592;2023-03-26T12:25:02;97431.44;;;6.78;100.00
35443;BME280;21561;55.654;37.592;2023-03-26T12:27:29;97419.34;;;6.80;100.00
35443;BME280;21561;55.654;37.592;2023-03-26T12:30:39;97428.81;;;6.79;100.00
35443;BME280;21561;55.654;37.592;2023-03-26T12:32:46;97417.56;;;6.82;100.00
35443;BME280;21561;55.654;37.592;2023-03-26T12:35:25;97419.34;;;6.80;100.00
35443;BME280;21561;55.654;37.592;2023-03-26T12:37:53;97424.50;;;6.80;100.00
35443;BME280;21561;55.654;37.592;2023-03-26T12:40:30;97417.75;;;6.76;100.00
35443;BME280;21561;55.654;37.592;2023-03-26T12:42:59;97424.63;;;6.77;100.00
35443;BME280;21561;55.654;37.592;2023-03-26T12:45:47;97414.19;;;6.80;100.00
35443;BME280;21561;55.654;37.592;2023-03-26T12:48:35;97398.91;;;6.74;100.00
35443;BME280;21561;55.654;37.592;2023-03-26T12:59:14;97417.56;;;6.82;100.00
35443;BME280;21561;55.654;37.592;2023-03-26T13:01:46;97407.53;;;6.73;100.00
35443;BME280;21561;55.654;37.592;2023-03-26T13:04:22;97414.38;;;6.74;100.00
35443;BME280;21561;55.654;37.592;2023-03-26T13:06:52;97412.78;;;6.69;100.00
35443;BME280;21561;55.654;37.592;2023-03-26T13:14:45;97411.94;;;6.67;100.00
35443;BME280;21561;55.654;37.592;2023-03-26T13:22:35;97412.84;;;6.66;100.00
35443;BME280;21561;55.654;37.592;2023-03-26T13:27:41;97408.69;;;6.62;100.00
35443;BME280;21561;55.654;37.592;2023-03-26T13:35:12;97406.25;;;6.56;100.00
35443;BME280;21561;55.654;37.592;2023-03-26T13:40:21;97401.16;;;6.53;100.00
35443;BME280;21561;55.654;37.592;2023-03-26T13:43:01;97402.06;;;6.52;100.00
35443;BME280;21561;55.654;37.592;2023-03-26T13:45:51;97401.16;;;6.53;100.00
35443;BME280;21561;55.654;37.592;2023-03-26T13:48:25;97409.00;;;6.50;100.00
35443;BME280;21561;55.654;37.592;2023-03-26T13:50:58;97400.50;;;6.46;100.00
35443;BME280;21561;55.654;37.592;2023-03-26T13:53:28;97393.59;;;6.48;100.00
35443;BME280;21561;55.654;37.592;2023-03-26T13:55:58;97387.59;;;6.48;100.00
35443;BME280;21561;55.654;37.592;2023-03-26T13:58:36;97392.81;;;6.45;100.00
35443;BME280;21561;55.654;37.592;2023-03-26T14:01:13;97397.06;;;6.46;100.00
35443;BME280;21561;55.654;37.592;2023-03-26T14:09:18;97395.50;;;6.40;100.00
35443;BME280;21561;55.654;37.592;2023-03-26T14:12:00;97399.81;;;6.40;100.00
35443;BME280;21561;55.654;37.592;2023-03-26T14:15:02;97398.03;;;6.42;100.00
35443;BME280;21561;55.654;37.592;2023-03-26T14:17:36;97401.66;;;6.35;100.00
35443;BME280;21561;55.654;37.592;2023-03-26T14:22:37;97399.16;;;6.31;100.00
35443;BME280;21561;55.654;37.592;2023-03-26T14:35:39;97405.22;;;6.30;100.00
35443;BME280;21561;55.654;37.592;2023-03-26T14:40:51;97391.53;;;6.28;100.00
35443;BME280;21561;55.654;37.592;2023-03-26T14:53:31;97390.63;;;6.29;100.00
35443;BME280;21561;55.654;37.592;2023-03-26T14:58:55;97400.22;;;6.24;100.00
35443;BME280;21561;55.654;37.592;2023-03-26T15:01:20;97396.00;;;6.22;100.00
35443;BME280;21561;55.654;37.592;2023-03-26T15:11:45;97394.22;;;6.24;100.00
35443;BME280;21561;55.654;37.592;2023-03-26T15:16:54;97389.13;;;6.21;100.00
35443;BME280;21561;55.654;37.592;2023-03-26T15:43:06;97385.16;;;6.09;100.00
35443;BME280;21561;55.654;37.592;2023-03-26T15:55:41;97391.91;;;6.13;100.00
35443;BME280;21561;55.654;37.592;2023-03-26T15:58:17;97395.41;;;6.12;100.00
35443;BME280;21561;55.654;37.592;2023-03-26T16:00:51;97401.25;;;6.17;100.00
35443;BME280;21561;55.654;37.592;2023-03-26T16:09:30;97402.22;;;6.13;100.00
35443;BME280;21561;55.654;37.592;2023-03-26T16:11:55;97397.97;;;6.12;100.00
35443;BME280;21561;55.654;37.592;2023-03-26T16:14:21;97403.13;;;6.12;100.00
35443;BME280;21561;55.654;37.592;2023-03-26T16:16:51;97397.97;;;6.12;100.00
35443;BME280;21561;55.654;37.592;2023-03-26T16:24:19;97403.25;;;6.06;100.00
35443;BME280;21561;55.654;37.592;2023-03-26T16:29:20;97393.69;;;6.11;100.00
35443;BME280;21561;55.654;37.592;2023-03-26T16:37:04;97401.34;;;6.14;100.00
35443;BME280;21561;55.654;37.592;2023-03-26T16:39:37;97405.69;;;6.12;100.00
35443;BME280;21561;55.654;37.592;2023-03-26T16:42:18;97405.69;;;6.12;100.00
35443;BME280;21561;55.654;37.592;2023-03-26T16:47:36;97404.94;;;6.08;100.00
35443;BME280;21561;55.654;37.592;2023-03-26T16:52:46;97404.06;;;6.08;100.00
35443;BME280;21561;55.654;37.592;2023-03-26T17:01:03;97404.78;;;6.13;100.00
35443;BME280;21561;55.654;37.592;2023-03-26T17:08:17;97409.13;;;6.11;100.00
35443;BME280;21561;55.654;37.592;2023-03-26T17:19:24;97408.19;;;6.14;100.00
35443;BME280;21561;55.654;37.592;2023-03-26T17:21:57;97414.13;;;6.17;100.00
35443;BME280;21561;55.654;37.592;2023-03-26T17:32:15;97411.03;;;6.03;100.00
35443;BME280;21561;55.654;37.592;2023-03-26T17:35:06;97405.91;;;6.03;100.00
35443;BME280;21561;55.654;37.592;2023-03-26T17:37:40;97410.19;;;6.04;100.00
35443;BME280;21561;55.654;37.592;2023-03-26T17:40:30;97405.91;;;6.03;100.00
35443;BME280;21561;55.654;37.592;2023-03-26T17:43:09;97400.84;;;6.00;100.00
35443;BME280;21561;55.654;37.592;2023-03-26T17:45:37;97402.53;;;6.01;100.00
35443;BME280;21561;55.654;37.592;2023-03-26T17:50:32;97400.84;;;6.00;100.00
35443;BME280;21561;55.654;37.592;2023-03-26T17:53:11;97398.28;;;6.00;100.00
35443;BME280;21561;55.654;37.592;2023-03-26T17:55:40;97406.19;;;5.90;100.00
35443;BME280;21561;55.654;37.592;2023-03-26T17:58:22;97406.13;;;5.92;100.00
35443;BME280;21561;55.654;37.592;2023-03-26T18:00:51;97401.81;;;5.94;100.00
35443;BME280;21561;55.654;37.592;2023-03-26T18:03:56;97400.13;;;5.93;100.00
35443;BME280;21561;55.654;37.592;2023-03-26T18:06:17;97390.63;;;5.97;100.00
35443;BME280;21561;55.654;37.592;2023-03-26T18:11:49;97399.28;;;5.92;100.00
35443;BME280;21561;55.654;37.592;2023-03-26T18:16:51;97398.28;;;6.00;100.00
35443;BME280;21561;55.654;37.592;2023-03-26T18:19:19;97399.22;;;5.96;100.00
35443;BME280;21561;55.654;37.592;2023-03-26T18:21:48;97396.56;;;5.99;100.00
35443;BME280;21561;55.654;37.592;2023-03-26T18:29:33;97396.66;;;5.94;100.00
35443;BME280;21561;55.654;37.592;2023-03-26T18:34:38;97395.06;;;5.88;100.00
35443;BME280;21561;55.654;37.592;2023-03-26T18:40:07;97390.00;;;5.85;100.00
35443;BME280;21561;55.654;37.592;2023-03-26T18:42:38;97384.06;;;5.83;100.00
35443;BME280;21561;55.654;37.592;2023-03-26T18:45:19;97387.50;;;5.82;100.00